createdAt,value
2023-01-29T00:02:50.053Z,5.68
2023-01-29T00:05:52.296Z,5.40
2023-01-29T00:08:54.603Z,6.95
2023-01-29T00:11:57.237Z,5.53
2023-01-29T00:14:59.338Z,5.75
2023-01-29T00:18:02.520Z,5.50
2023-01-29T00:21:09.267Z,6.38
2023-01-29T00:24:11.852Z,6.03
2023-01-29T00:27:14.077Z,6.28
2023-01-29T00:30:20.108Z,6.78
2023-01-29T00:33:23.336Z,5.13
2023-01-29T00:36:26.739Z,6.45
2023-01-29T00:39:47.564Z,7.13
2023-01-29T00:43:09.055Z,6.22
2023-01-29T00:46:11.585Z,6.30
2023-01-29T00:49:13.826Z,5.85
2023-01-29T00:52:25.407Z,5.97
2023-01-29T00:55:27.645Z,5.32
2023-01-29T00:58:34.693Z,5.68
2023-01-29T01:01:55.707Z,6.07
2023-01-29T01:04:57.777Z,5.85
2023-01-29T01:07:59.932Z,6.63
2023-01-29T01:11:05.553Z,7.13
2023-01-29T01:14:08.155Z,6.25
2023-01-29T01:17:10.246Z,5.45
2023-01-29T01:20:13.519Z,5.35
2023-01-29T01:23:15.805Z,6.88
2023-01-29T01:26:19.008Z,7.38
2023-01-29T01:29:21.198Z,5.90
2023-01-29T01:32:23.295Z,6.03
2023-01-29T01:35:25.302Z,6.53
2023-01-29T01:38:27.643Z,6.22
2023-01-29T01:41:30.820Z,6.72
2023-01-29T01:45:18.683Z,6.00
2023-01-29T01:48:26.955Z,7.25
2023-01-29T01:51:32.949Z,6.55
2023-01-29T01:54:35.104Z,5.13
2023-01-29T01:57:37.289Z,5.70
2023-01-29T02:00:40.158Z,7.57
2023-01-29T02:04:06.674Z,6.28
2023-01-29T02:07:33.145Z,6.75
2023-01-29T02:10:46.914Z,5.75
2023-01-29T02:13:53.906Z,6.72
2023-01-29T02:17:01.873Z,7.95
2023-01-29T02:20:17.983Z,5.50
2023-01-29T02:23:38.271Z,7.63
2023-01-29T02:26:50.948Z,8.23
2023-01-29T02:30:09.367Z,7.25
2023-01-29T02:33:39.553Z,7.72
2023-01-29T02:36:49.259Z,7.18
2023-01-29T02:40:00.983Z,7.00
2023-01-29T02:43:11.858Z,7.18
2023-01-29T02:46:35.394Z,8.23
2023-01-29T02:50:07.629Z,7.78
2023-01-29T02:53:16.763Z,8.35
2023-01-29T02:56:25.821Z,7.93
2023-01-29T02:59:37.340Z,8.00
2023-01-29T03:02:54.562Z,5.75
2023-01-29T03:06:07.951Z,6.90
2023-01-29T03:09:16.719Z,7.80
2023-01-29T03:12:34.241Z,8.57
2023-01-29T03:15:47.598Z,8.43
2023-01-29T03:19:07.292Z,6.95
2023-01-29T03:22:11.574Z,7.07
2023-01-29T03:25:34.409Z,7.60
2023-01-29T03:28:55.919Z,7.60
2023-01-29T03:32:05.605Z,8.02
2023-01-29T03:35:11.506Z,9.50
2023-01-29T03:38:13.869Z,7.53
2023-01-29T03:41:22.536Z,8.95
2023-01-29T03:44:44.024Z,7.50
2023-01-29T03:48:16.656Z,6.55
2023-01-29T03:51:24.412Z,8.65
2023-01-29T03:54:49.620Z,7.40
2023-01-29T03:58:30.925Z,7.55
2023-01-29T04:01:42.991Z,7.78
2023-01-29T04:04:52.209Z,8.13
2023-01-29T04:08:03.228Z,8.35
2023-01-29T04:11:12.114Z,6.57
2023-01-29T04:14:15.175Z,7.00
2023-01-29T04:17:40.900Z,7.82
2023-01-29T04:20:55.189Z,7.05
2023-01-29T04:23:57.503Z,6.38
2023-01-29T04:27:28.366Z,7.55
2023-01-29T04:30:55.330Z,7.03
2023-01-29T04:34:25.867Z,6.95
2023-01-29T04:37:40.348Z,5.75
2023-01-29T04:41:12.239Z,6.63
2023-01-29T04:44:21.037Z,7.65
2023-01-29T04:47:45.050Z,6.53
2023-01-29T04:50:59.342Z,7.43
2023-01-29T04:54:16.599Z,6.55
2023-01-29T04:57:33.708Z,7.38
2023-01-29T05:00:43.252Z,6.60
2023-01-29T05:03:50.263Z,7.88
2023-01-29T05:06:53.485Z,6.85
2023-01-29T05:09:57.109Z,6.10
2023-01-29T05:13:03.385Z,5.95
2023-01-29T05:16:13.812Z,5.32
2023-01-29T05:19:17.017Z,6.22
2023-01-29T05:22:22.862Z,5.38
2023-01-29T05:25:28.894Z,5.72
2023-01-29T05:28:31.213Z,5.47
2023-01-29T05:31:33.519Z,5.43
2023-01-29T05:34:35.792Z,5.63
2023-01-29T05:37:37.886Z,6.05
2023-01-29T05:40:40.154Z,5.35
2023-01-29T05:43:42.169Z,6.22
2023-01-29T05:46:45.229Z,5.70
2023-01-29T05:49:47.467Z,6.22
2023-01-29T05:52:49.525Z,6.80
2023-01-29T05:55:51.898Z,5.43
2023-01-29T05:58:53.980Z,5.40
2023-01-29T06:01:56.463Z,6.15
2023-01-29T06:04:58.493Z,5.93
2023-01-29T06:08:00.655Z,6.65
2023-01-29T06:11:03.427Z,6.07
2023-01-29T06:14:05.587Z,7.18
2023-01-29T06:17:08.106Z,6.75
2023-01-29T06:20:10.874Z,6.28
2023-01-29T06:23:13.010Z,8.25
2023-01-29T06:26:16.390Z,8.40
2023-01-29T06:29:18.540Z,7.68
2023-01-29T06:32:20.716Z,7.80
2023-01-29T06:35:22.934Z,8.07
2023-01-29T06:38:26.680Z,7.38
2023-01-29T06:41:28.821Z,8.63
2023-01-29T06:44:30.835Z,7.65
2023-01-29T06:47:33.041Z,7.70
2023-01-29T06:50:35.050Z,7.95
2023-01-29T06:53:38.559Z,6.47
2023-01-29T06:56:40.854Z,8.05
2023-01-29T06:59:45.425Z,8.40
2023-01-29T07:02:50.399Z,7.35
2023-01-29T07:05:53.168Z,7.45
2023-01-29T07:08:55.958Z,7.90
2023-01-29T07:11:57.905Z,7.00
2023-01-29T07:15:00.196Z,6.68
2023-01-29T07:18:12.052Z,5.82
2023-01-29T07:21:14.159Z,6.70
2023-01-29T07:24:16.606Z,6.70
2023-01-29T07:27:18.709Z,8.05
2023-01-29T07:30:21.723Z,6.75
2023-01-29T07:33:24.100Z,6.78
2023-01-29T07:36:27.498Z,6.75
2023-01-29T07:39:29.549Z,5.53
2023-01-29T07:42:34.791Z,6.20
2023-01-29T07:45:38.968Z,6.00
2023-01-29T07:48:41.082Z,6.40
2023-01-29T07:51:43.098Z,5.53
2023-01-29T07:54:45.179Z,6.35
2023-01-29T07:57:47.738Z,7.45
2023-01-29T08:00:49.986Z,6.18
2023-01-29T08:04:02.031Z,5.40
2023-01-29T08:07:07.269Z,4.88
2023-01-29T08:10:09.968Z,5.70
2023-01-29T08:13:12.265Z,5.05
2023-01-29T08:16:14.713Z,6.15
2023-01-29T08:19:16.828Z,5.22
2023-01-29T08:22:18.892Z,4.68
2023-01-29T08:25:22.712Z,5.72
2023-01-29T08:28:25.152Z,5.88
2023-01-29T08:31:27.430Z,6.28
2023-01-29T08:34:29.548Z,5.97
2023-01-29T08:37:31.766Z,4.95
2023-01-29T08:40:35.209Z,4.00
2023-01-29T08:43:37.391Z,4.80
2023-01-29T08:46:40.945Z,4.45
2023-01-29T08:49:43.035Z,4.85
2023-01-29T08:52:45.729Z,5.80
2023-01-29T08:55:49.076Z,4.88
2023-01-29T08:58:52.023Z,4.85
2023-01-29T09:01:54.139Z,5.15
2023-01-29T09:04:56.582Z,5.28
2023-01-29T09:08:01.969Z,4.80
2023-01-29T09:11:05.686Z,6.03
2023-01-29T09:14:07.785Z,5.22
2023-01-29T09:17:09.818Z,5.53
2023-01-29T09:20:12.162Z,5.63
2023-01-29T09:23:14.297Z,5.03
2023-01-29T09:26:16.350Z,4.38
2023-01-29T09:29:20.911Z,4.35
2023-01-29T09:32:51.600Z,3.45
2023-01-29T09:35:49.129Z,4.55
2023-01-29T09:38:51.857Z,5.18
2023-01-29T09:42:19.087Z,4.35
2023-01-29T09:45:29.035Z,4.22
2023-01-29T09:48:34.586Z,5.35
2023-01-29T09:51:46.970Z,3.83
2023-01-29T09:55:22.765Z,4.47
2023-01-29T09:58:40.073Z,5.28
2023-01-29T10:02:27.812Z,4.70
2023-01-29T10:05:45.930Z,5.25
2023-01-29T10:09:25.524Z,4.28
2023-01-29T10:12:37.118Z,6.40
2023-01-29T10:15:50.123Z,4.65
2023-01-29T10:19:36.997Z,6.05
2023-01-29T10:22:55.467Z,3.97
2023-01-29T10:25:58.014Z,4.28
2023-01-29T10:29:07.265Z,4.75
2023-01-29T10:32:20.571Z,5.93
2023-01-29T10:35:32.219Z,5.68
2023-01-29T10:38:37.848Z,4.90
2023-01-29T10:42:17.958Z,5.60
2023-01-29T10:45:54.586Z,4.95
2023-01-29T10:49:11.569Z,4.53
2023-01-29T10:52:52.329Z,3.70
2023-01-29T10:56:22.643Z,4.60
2023-01-29T10:59:43.203Z,5.03
2023-01-29T11:02:50.835Z,4.90
2023-01-29T11:06:28.780Z,3.60
2023-01-29T11:09:37.263Z,3.80
2023-01-29T11:12:39.680Z,3.80
2023-01-29T11:15:41.818Z,4.85
2023-01-29T11:19:16.620Z,4.35
2023-01-29T11:22:21.615Z,5.43
2023-01-29T11:25:24.140Z,5.25
2023-01-29T11:28:39.488Z,5.20
2023-01-29T11:31:41.830Z,4.20
2023-01-29T11:35:03.349Z,4.70
2023-01-29T11:38:27.372Z,4.20
2023-01-29T11:41:29.407Z,5.00
2023-01-29T11:44:31.429Z,4.78
2023-01-29T11:47:34.076Z,4.07
2023-01-29T11:50:36.190Z,4.35
2023-01-29T11:53:45.246Z,5.70
2023-01-29T11:56:48.292Z,3.55
2023-01-29T11:59:52.699Z,4.80
2023-01-29T12:02:57.004Z,3.65
2023-01-29T12:06:03.905Z,4.63
2023-01-29T12:09:16.090Z,4.68
2023-01-29T12:12:42.390Z,4.90
2023-01-29T12:15:44.932Z,5.15
2023-01-29T12:18:53.388Z,4.97
2023-01-29T12:25:50.666Z,5.03
2023-01-29T12:29:22.420Z,5.32
2023-01-29T12:32:41.212Z,4.63
2023-01-29T12:35:57.754Z,4.78
2023-01-29T12:39:02.065Z,4.93
2023-01-29T12:42:31.073Z,5.00
2023-01-29T12:45:35.174Z,4.22
2023-01-29T12:48:40.164Z,5.32
2023-01-29T12:51:58.944Z,4.93
2023-01-29T12:55:06.701Z,5.88
2023-01-29T13:01:26.194Z,4.25
2023-01-29T13:04:34.463Z,5.32
2023-01-29T13:07:46.578Z,5.90
2023-01-29T13:10:54.165Z,5.82
2023-01-29T13:14:13.661Z,6.40
2023-01-29T13:17:34.321Z,6.45
2023-01-29T13:20:39.195Z,4.95
2023-01-29T13:23:48.621Z,5.32
2023-01-29T13:26:51.700Z,5.95
2023-01-29T13:29:55.503Z,6.13
2023-01-29T13:33:11.377Z,6.15
2023-01-29T13:36:26.384Z,5.50
2023-01-29T13:39:35.080Z,5.38
2023-01-29T13:45:49.363Z,5.35
2023-01-29T13:48:54.715Z,5.57
2023-01-29T13:51:57.869Z,5.63
2023-01-29T13:55:15.074Z,6.13
2023-01-29T13:58:42.311Z,5.07
2023-01-29T14:01:53.238Z,5.10
2023-01-29T14:05:29.194Z,5.35
2023-01-29T14:08:45.255Z,5.05
2023-01-29T14:11:51.362Z,5.57
2023-01-29T14:14:56.851Z,5.85
2023-01-29T14:18:14.022Z,6.00
2023-01-29T14:21:28.526Z,7.20
2023-01-29T14:24:31.382Z,5.70
2023-01-29T14:27:36.107Z,6.22
2023-01-29T14:30:40.556Z,7.22
2023-01-29T14:33:43.605Z,6.13
2023-01-29T14:36:50.551Z,6.30
2023-01-29T14:39:57.815Z,7.75
2023-01-29T14:43:27.226Z,8.13
2023-01-29T14:46:35.654Z,7.22
2023-01-29T14:49:58.309Z,8.48
2023-01-29T14:53:30.298Z,7.97
2023-01-29T14:56:41.060Z,7.80
2023-01-29T15:00:05.609Z,7.55
2023-01-29T15:03:33.940Z,9.80
2023-01-29T15:06:48.369Z,8.90
2023-01-29T15:10:13.501Z,9.70
2023-01-29T15:13:42.418Z,10.07
2023-01-29T15:17:05.576Z,10.90
2023-01-29T15:20:27.407Z,9.95
2023-01-29T15:23:32.079Z,9.55
2023-01-29T15:26:36.125Z,10.88
2023-01-29T15:29:38.968Z,9.80
2023-01-29T15:32:41.345Z,11.10
2023-01-29T15:35:43.641Z,9.50
2023-01-29T15:38:45.821Z,9.10
2023-01-29T15:41:48.574Z,8.68
2023-01-29T15:44:50.701Z,9.52
2023-01-29T15:47:55.652Z,9.18
2023-01-29T15:50:58.829Z,9.43
2023-01-29T15:54:03.895Z,8.02
2023-01-29T15:57:06.628Z,8.70
2023-01-29T16:00:22.328Z,9.10
2023-01-29T16:03:29.251Z,9.05
2023-01-29T16:06:38.188Z,9.98
2023-01-29T16:09:40.641Z,10.27
2023-01-29T16:12:43.227Z,8.95
2023-01-29T16:15:59.466Z,9.65
2023-01-29T16:19:01.708Z,10.75
2023-01-29T16:22:06.653Z,10.40
2023-01-29T16:25:14.588Z,9.50
2023-01-29T16:28:17.843Z,12.35
2023-01-29T16:31:28.778Z,11.52
2023-01-29T16:34:38.400Z,11.30
2023-01-29T16:37:40.521Z,12.07
2023-01-29T16:41:07.480Z,10.43
2023-01-29T16:44:21.588Z,10.93
2023-01-29T16:47:28.388Z,11.00
2023-01-29T16:50:38.287Z,11.35
2023-01-29T16:54:02.686Z,10.50
2023-01-29T17:00:15.531Z,11.98
2023-01-29T17:03:18.989Z,12.15
2023-01-29T17:06:27.607Z,10.27
2023-01-29T17:09:35.200Z,11.82
2023-01-29T17:12:38.922Z,9.73
2023-01-29T17:15:49.913Z,10.07
2023-01-29T17:18:52.528Z,9.75
2023-01-29T17:21:57.234Z,10.43
2023-01-29T17:24:59.495Z,11.02
2023-01-29T17:28:04.108Z,12.18
2023-01-29T17:31:09.555Z,10.18
2023-01-29T17:34:16.060Z,10.00
2023-01-29T17:37:18.285Z,11.63
2023-01-29T17:40:29.994Z,13.02
2023-01-29T17:43:32.265Z,11.38
2023-01-29T17:46:34.289Z,10.82
2023-01-29T17:49:37.933Z,10.98
2023-01-29T17:52:40.018Z,12.13
2023-01-29T17:55:42.674Z,11.85
2023-01-29T17:58:48.169Z,12.00
2023-01-29T18:01:51.294Z,10.00
2023-01-29T18:04:53.414Z,10.98
2023-01-29T18:07:55.680Z,9.63
2023-01-29T18:10:57.861Z,8.88
2023-01-29T18:14:01.291Z,9.63
2023-01-29T18:17:11.435Z,9.85
2023-01-29T18:20:25.696Z,10.13
2023-01-29T18:23:29.696Z,9.23
2023-01-29T18:26:33.997Z,10.85
2023-01-29T18:29:36.038Z,9.57
2023-01-29T18:32:38.509Z,9.13
2023-01-29T18:35:40.493Z,9.07
2023-01-29T18:38:42.622Z,10.05
2023-01-29T18:41:45.102Z,10.32
2023-01-29T18:44:47.392Z,9.65
2023-01-29T18:47:51.090Z,7.85
2023-01-29T18:50:53.249Z,7.95
2023-01-29T18:53:55.287Z,7.30
2023-01-29T18:57:13.248Z,7.72
2023-01-29T19:00:17.674Z,8.05
2023-01-29T19:03:19.869Z,6.53
2023-01-29T19:06:22.097Z,6.55
2023-01-29T19:09:26.348Z,6.50
2023-01-29T19:12:28.804Z,7.15
2023-01-29T19:15:30.882Z,7.38
2023-01-29T19:18:32.988Z,6.25
2023-01-29T19:21:38.732Z,8.63
2023-01-29T19:24:41.102Z,6.90
2023-01-29T19:27:43.374Z,6.45
2023-01-29T19:30:46.033Z,6.97
2023-01-29T19:33:48.940Z,6.72
2023-01-29T19:36:51.013Z,7.20
2023-01-29T19:39:53.967Z,6.63
2023-01-29T19:42:56.610Z,7.25
2023-01-29T19:46:00.918Z,7.43
2023-01-29T19:49:03.738Z,8.38
2023-01-29T19:52:07.571Z,7.68
2023-01-29T19:55:11.307Z,8.70
2023-01-29T19:58:14.052Z,7.20
2023-01-29T20:01:21.393Z,7.45
2023-01-29T20:04:23.632Z,8.15
2023-01-29T20:07:26.614Z,8.65
2023-01-29T20:10:28.751Z,8.50
2023-01-29T20:13:31.025Z,9.20
2023-01-29T20:16:33.145Z,7.80
2023-01-29T20:19:35.248Z,8.65
2023-01-29T20:22:38.416Z,8.38
2023-01-29T20:25:42.059Z,8.52
2023-01-29T20:28:48.328Z,7.72
2023-01-29T20:31:50.491Z,8.60
2023-01-29T20:34:52.558Z,8.95
2023-01-29T20:37:54.504Z,9.10
2023-01-29T20:41:04.573Z,8.68
2023-01-29T20:44:08.613Z,9.55
2023-01-29T20:47:10.734Z,10.38
2023-01-29T20:50:16.345Z,9.98
2023-01-29T20:53:18.755Z,11.50
2023-01-29T20:56:36.253Z,9.77
2023-01-29T20:59:45.336Z,8.60
2023-01-29T21:02:48.820Z,9.50
2023-01-29T21:05:53.570Z,10.57
2023-01-29T21:08:56.034Z,8.55
2023-01-29T21:11:59.406Z,9.10
2023-01-29T21:15:04.822Z,10.52
2023-01-29T21:18:07.092Z,9.35
2023-01-29T21:21:09.331Z,9.57
2023-01-29T21:24:13.124Z,9.65
2023-01-29T21:27:15.232Z,9.38
2023-01-29T21:30:19.879Z,10.80
2023-01-29T21:33:22.152Z,10.38
2023-01-29T21:36:32.662Z,10.55
2023-01-29T21:39:35.661Z,9.52
2023-01-29T21:42:58.019Z,9.15
2023-01-29T21:46:12.155Z,7.88
2023-01-29T21:49:16.663Z,10.20
2023-01-29T21:52:18.708Z,8.77
2023-01-29T21:55:20.756Z,9.90
2023-01-29T21:58:24.958Z,7.95
2023-01-29T22:01:37.656Z,9.57
2023-01-29T22:04:42.763Z,9.88
2023-01-29T22:07:48.216Z,8.85
2023-01-29T22:10:53.176Z,9.57
2023-01-29T22:13:58.353Z,8.65
2023-01-29T22:17:02.463Z,8.18
2023-01-29T22:20:05.990Z,8.02
2023-01-29T22:23:08.467Z,8.52
2023-01-29T22:26:15.271Z,7.88
2023-01-29T22:29:18.416Z,8.77
2023-01-29T22:32:20.673Z,7.80
2023-01-29T22:35:25.851Z,8.38
2023-01-29T22:38:31.638Z,7.90
2023-01-29T22:41:36.854Z,7.72
2023-01-29T22:44:41.821Z,7.60
2023-01-29T22:47:44.905Z,7.53
2023-01-29T22:50:53.077Z,7.85
2023-01-29T22:54:03.480Z,8.07
2023-01-29T22:57:10.242Z,9.18
2023-01-29T23:00:16.849Z,8.75
2023-01-29T23:03:19.256Z,8.98
2023-01-29T23:06:22.986Z,10.38
2023-01-29T23:09:26.706Z,9.25
2023-01-29T23:12:29.495Z,9.35
2023-01-29T23:15:31.566Z,8.90
2023-01-29T23:18:33.843Z,9.15
2023-01-29T23:21:36.022Z,10.95
2023-01-29T23:24:38.736Z,8.60
2023-01-29T23:27:41.239Z,9.65
2023-01-29T23:30:45.449Z,11.35
2023-01-29T23:33:51.089Z,11.23
2023-01-29T23:36:54.081Z,9.75
2023-01-29T23:39:56.066Z,9.15
2023-01-29T23:42:58.221Z,8.48
2023-01-29T23:46:01.951Z,9.35
2023-01-29T23:49:05.580Z,9.48
2023-01-29T23:52:11.373Z,10.98
2023-01-29T23:55:13.714Z,10.18
2023-01-29T23:58:15.675Z,9.00
